sensor_id;sensor_type;location;lat;lon;timestamp;pressure;altitude;pressure_sealevel;temperature;humidity
57779;BME280;43608;49.486;9.640;2024-03-29T00:00:20;97036.38;;;1.78;92.51
57779;BME280;43608;49.486;9.640;2024-03-29T00:00:50;97037.22;;;1.82;93.14
57779;BME280;43608;49.486;9.640;2024-03-29T00:01:21;97043.34;;;1.83;93.27
57779;BME280;43608;49.486;9.640;2024-03-29T00:01:51;97039.88;;;1.84;93.16
57779;BME280;43608;49.486;9.640;2024-03-29T00:02:21;97040.75;;;1.83;93.37
57779;BME280;43608;49.486;9.640;2024-03-29T00:02:52;97018.91;;;1.70;93.93
57779;BME280;43608;49.486;9.640;2024-03-29T00:03:22;97043.34;;;1.87;93.75
57779;BME280;43608;49.486;9.640;2024-03-29T00:03:53;97045.09;;;1.88;93.91
57779;BME280;43608;49.486;9.640;2024-03-29T00:04:24;97046.84;;;1.89;93.95
57779;BME280;43608;49.486;9.640;2024-03-29T00:04:54;97049.47;;;1.91;93.85
57779;BME280;43608;49.486;9.640;2024-03-29T00:05:25;97043.34;;;1.87;93.96
57779;BME280;43608;49.486;9.640;2024-03-29T00:05:55;97059.06;;;1.93;94.07
57779;BME280;43608;49.486;9.640;2024-03-29T00:06:25;97042.47;;;1.87;93.87
57779;BME280;43608;49.486;9.640;2024-03-29T00:06:56;97054.72;;;1.95;94.02
57779;BME280;43608;49.486;9.640;2024-03-29T00:07:26;97045.13;;;1.93;93.70
57779;BME280;43608;49.486;9.640;2024-03-29T00:07:56;97045.16;;;1.99;93.79
57779;BME280;43608;49.486;9.640;2024-03-29T00:08:27;97053.84;;;2.00;93.93
57779;BME280;43608;49.486;9.640;2024-03-29T00:08:57;97056.47;;;2.01;94.17
57779;BME280;43608;49.486;9.640;2024-03-29T00:09:28;97054.75;;;2.03;93.97
57779;BME280;43608;49.486;9.640;2024-03-29T00:09:58;97050.38;;;2.02;93.49
57779;BME280;43608;49.486;9.640;2024-03-29T00:10:29;97043.41;;;2.00;93.52
57779;BME280;43608;49.486;9.640;2024-03-29T00:10:59;97054.75;;;2.06;93.74
57779;BME280;43608;49.486;9.640;2024-03-29T00:11:29;97046.00;;;2.03;93.44
57779;BME280;43608;49.486;9.640;2024-03-29T00:12:01;97050.38;;;2.07;94.00
57779;BME280;43608;49.486;9.640;2024-03-29T00:12:31;97046.03;;;2.04;94.03
57779;BME280;43608;49.486;9.640;2024-03-29T00:13:02;97054.78;;;2.11;93.43
57779;BME280;43608;49.486;9.640;2024-03-29T00:13:32;97054.78;;;2.11;93.60
57779;BME280;43608;49.486;9.640;2024-03-29T00:14:02;97053.88;;;2.12;93.37
57779;BME280;43608;49.486;9.640;2024-03-29T00:14:33;97049.53;;;2.12;93.60
57779;BME280;43608;49.486;9.640;2024-03-29T00:15:03;97053.91;;;2.13;93.14
57779;BME280;43608;49.486;9.640;2024-03-29T00:15:34;97012.03;;;1.90;93.08
57779;BME280;43608;49.486;9.640;2024-03-29T00:16:04;97039.94;;;2.11;93.44
57779;BME280;43608;49.486;9.640;2024-03-29T00:16:35;97040.84;;;2.15;93.21
57779;BME280;43608;49.486;9.640;2024-03-29T00:17:05;97039.94;;;2.14;93.17
57779;BME280;43608;49.486;9.640;2024-03-29T00:17:35;97036.47;;;2.15;92.88
57779;BME280;43608;49.486;9.640;2024-03-29T00:18:06;97012.06;;;2.04;93.03
57779;BME280;43608;49.486;9.640;2024-03-29T00:18:37;97025.16;;;2.13;92.75
57779;BME280;43608;49.486;9.640;2024-03-29T00:19:07;97024.25;;;2.14;92.62
57779;BME280;43608;49.486;9.640;2024-03-29T00:19:37;97026.00;;;2.14;92.80
57779;BME280;43608;49.486;9.640;2024-03-29T00:20:08;97030.34;;;2.12;92.60
57779;BME280;43608;49.486;9.640;2024-03-29T00:20:38;97029.50;;;2.11;92.67
57779;BME280;43608;49.486;9.640;2024-03-29T00:21:09;97019.91;;;2.04;92.65
57779;BME280;43608;49.486;9.640;2024-03-29T00:21:39;97026.88;;;2.08;92.25
57779;BME280;43608;49.486;9.640;2024-03-29T00:22:09;97023.38;;;2.05;92.28
57779;BME280;43608;49.486;9.640;2024-03-29T00:22:40;97014.66;;;2.00;92.23
57779;BME280;43608;49.486;9.640;2024-03-29T00:23:10;97033.84;;;2.05;92.68
57779;BME280;43608;49.486;9.640;2024-03-29T00:23:40;97019.03;;;2.02;92.63
57779;BME280;43608;49.486;9.640;2024-03-29T00:24:11;97026.88;;;2.02;92.90
57779;BME280;43608;49.486;9.640;2024-03-29T00:24:41;97022.50;;;2.03;92.82
57779;BME280;43608;49.486;9.640;2024-03-29T00:25:11;97032.09;;;2.02;92.42
57779;BME280;43608;49.486;9.640;2024-03-29T00:25:42;97033.84;;;2.02;92.93
57779;BME280;43608;49.486;9.640;2024-03-29T00:26:12;97022.50;;;2.01;92.54
57779;BME280;43608;49.486;9.640;2024-03-29T00:26:42;97011.16;;;1.96;93.02
57779;BME280;43608;49.486;9.640;2024-03-29T00:27:13;97019.03;;;2.01;93.05
57779;BME280;43608;49.486;9.640;2024-03-29T00:27:43;97017.28;;;2.00;92.87
57779;BME280;43608;49.486;9.640;2024-03-29T00:28:14;97002.47;;;1.95;92.76
57779;BME280;43608;49.486;9.640;2024-03-29T00:28:44;97005.06;;;1.98;93.00
57779;BME280;43608;49.486;9.640;2024-03-29T00:29:14;96995.50;;;2.01;93.23
57779;BME280;43608;49.486;9.640;2024-03-29T00:29:45;97005.06;;;1.98;93.12
57779;BME280;43608;49.486;9.640;2024-03-29T00:30:17;96994.63;;;1.98;93.31
57779;BME280;43608;49.486;9.640;2024-03-29T00:30:48;96990.25;;;1.97;93.32
57779;BME280;43608;49.486;9.640;2024-03-29T00:31:18;96990.25;;;1.97;93.18
57779;BME280;43608;49.486;9.640;2024-03-29T00:31:48;96986.78;;;1.97;93.14
57779;BME280;43608;49.486;9.640;2024-03-29T00:32:22;96985.03;;;1.96;93.29
57779;BME280;43608;49.486;9.640;2024-03-29T00:32:52;96981.56;;;1.95;93.27
57779;BME280;43608;49.486;9.640;2024-03-29T00:33:23;96984.16;;;1.95;93.35
57779;BME280;43608;49.486;9.640;2024-03-29T00:33:54;96981.56;;;1.94;93.36
57779;BME280;43608;49.486;9.640;2024-03-29T00:34:24;96988.50;;;1.93;93.04
57779;BME280;43608;49.486;9.640;2024-03-29T00:34:54;96975.44;;;1.92;93.34
57779;BME280;43608;49.486;9.640;2024-03-29T00:35:26;96979.81;;;1.93;93.31
57779;BME280;43608;49.486;9.640;2024-03-29T00:35:56;96983.28;;;1.93;93.58
57779;BME280;43608;49.486;9.640;2024-03-29T00:36:27;96977.19;;;1.91;93.75
57779;BME280;43608;49.486;9.640;2024-03-29T00:36:57;96977.19;;;1.91;93.18
57779;BME280;43608;49.486;9.640;2024-03-29T00:37:27;96971.94;;;1.85;93.34
57779;BME280;43608;49.486;9.640;2024-03-29T00:37:58;96973.69;;;1.89;93.47
57779;BME280;43608;49.486;9.640;2024-03-29T00:38:28;96971.09;;;1.88;93.76
57779;BME280;43608;49.486;9.640;2024-03-29T00:38:59;96966.72;;;1.87;93.54
57779;BME280;43608;49.486;9.640;2024-03-29T00:39:29;96971.94;;;1.88;93.92
57779;BME280;43608;49.486;9.640;2024-03-29T00:40:00;96974.56;;;1.88;93.85
57779;BME280;43608;49.486;9.640;2024-03-29T00:40:30;96959.75;;;1.81;94.03
57779;BME280;43608;49.486;9.640;2024-03-29T00:41:00;96972.81;;;1.87;93.64
57779;BME280;43608;49.486;9.640;2024-03-29T00:41:31;96968.47;;;1.86;94.08
57779;BME280;43608;49.486;9.640;2024-03-29T00:42:01;96971.09;;;1.86;94.26
57779;BME280;43608;49.486;9.640;2024-03-29T00:42:32;96963.25;;;1.86;94.02
57779;BME280;43608;49.486;9.640;2024-03-29T00:43:02;96966.72;;;1.87;93.93
57779;BME280;43608;49.486;9.640;2024-03-29T00:43:33;96966.72;;;1.87;93.77
57779;BME280;43608;49.486;9.640;2024-03-29T00:44:03;96949.28;;;1.79;94.27
57779;BME280;43608;49.486;9.640;2024-03-29T00:44:36;96967.59;;;1.86;94.16
57779;BME280;43608;49.486;9.640;2024-03-29T00:45:08;96951.91;;;1.72;93.78
57779;BME280;43608;49.486;9.640;2024-03-29T00:45:38;96965.84;;;1.83;94.07
57779;BME280;43608;49.486;9.640;2024-03-29T00:46:09;96965.84;;;1.83;94.22
57779;BME280;43608;49.486;9.640;2024-03-29T00:46:39;96975.44;;;1.83;94.37
57779;BME280;43608;49.486;9.640;2024-03-29T00:47:10;96963.22;;;1.80;94.06
57779;BME280;43608;49.486;9.640;2024-03-29T00:47:40;96965.84;;;1.83;94.58
57779;BME280;43608;49.486;9.640;2024-03-29T00:48:10;96969.34;;;1.84;94.45
57779;BME280;43608;49.486;9.640;2024-03-29T00:48:41;96964.97;;;1.83;94.42
57779;BME280;43608;49.486;9.640;2024-03-29T00:49:12;96957.13;;;1.79;94.81
57779;BME280;43608;49.486;9.640;2024-03-29T00:49:43;96949.28;;;1.76;94.62
57779;BME280;43608;49.486;9.640;2024-03-29T00:50:13;96961.47;;;1.82;94.76
57779;BME280;43608;49.486;9.640;2024-03-29T00:50:43;96968.44;;;1.85;94.98
57779;BME280;43608;49.486;9.640;2024-03-29T00:51:14;96966.72;;;1.85;94.75
57779;BME280;43608;49.486;9.640;2024-03-29T00:51:44;96964.13;;;1.84;95.17
57779;BME280;43608;49.486;9.640;2024-03-29T00:52:14;96964.97;;;1.86;94.76
57779;BME280;43608;49.486;9.640;2024-03-29T00:52:45;96955.41;;;1.86;94.73
57779;BME280;43608;49.486;9.640;2024-03-29T00:53:15;96963.25;;;1.86;94.83
57779;BME280;43608;49.486;9.640;2024-03-29T00:53:46;96958.88;;;1.85;94.95
57779;BME280;43608;49.486;9.640;2024-03-29T00:54:16;96950.16;;;1.85;94.67
57779;BME280;43608;49.486;9.640;2024-03-29T00:54:46;96943.19;;;1.79;94.81
57779;BME280;43608;49.486;9.640;2024-03-29T00:55:17;96955.38;;;1.83;94.83
57779;BME280;43608;49.486;9.640;2024-03-29T00:55:47;96958.88;;;1.85;94.49
57779;BME280;43608;49.486;9.640;2024-03-29T00:56:18;96958.00;;;1.85;94.35
57779;BME280;43608;49.486;9.640;2024-03-29T00:56:48;96962.38;;;1.84;94.31
57779;BME280;43608;49.486;9.640;2024-03-29T00:57:19;96958.88;;;1.85;94.62
57779;BME280;43608;49.486;9.640;2024-03-29T00:57:49;96961.50;;;1.85;94.76
57779;BME280;43608;49.486;9.640;2024-03-29T00:58:19;96961.50;;;1.84;94.81
57779;BME280;43608;49.486;9.640;2024-03-29T00:58:50;96934.47;;;1.64;94.62
57779;BME280;43608;49.486;9.640;2024-03-29T00:59:20;96959.75;;;1.81;94.55
57779;BME280;43608;49.486;9.640;2024-03-29T00:59:50;96964.97;;;1.86;94.75
57779;BME280;43608;49.486;9.640;2024-03-29T01:00:21;96966.72;;;1.87;94.85
57779;BME280;43608;49.486;9.640;2024-03-29T01:00:51;96955.41;;;1.80;94.69
57779;BME280;43608;49.486;9.640;2024-03-29T01:01:21;96974.56;;;1.88;94.98
57779;BME280;43608;49.486;9.640;2024-03-29T01:01:52;96972.84;;;1.89;94.64
57779;BME280;43608;49.486;9.640;2024-03-29T01:02:23;96978.91;;;1.89;95.03
57779;BME280;43608;49.486;9.640;2024-03-29T01:02:53;96958.88;;;1.77;94.91
57779;BME280;43608;49.486;9.640;2024-03-29T01:03:24;96979.81;;;1.91;95.17
57779;BME280;43608;49.486;9.640;2024-03-29T01:03:54;96970.22;;;1.89;95.28
57779;BME280;43608;49.486;9.640;2024-03-29T01:04:24;96963.22;;;1.80;94.97
57779;BME280;43608;49.486;9.640;2024-03-29T01:04:55;96973.69;;;1.88;95.23
57779;BME280;43608;49.486;9.640;2024-03-29T01:05:25;96979.81;;;1.91;95.08
57779;BME280;43608;49.486;9.640;2024-03-29T01:05:55;96958.00;;;1.81;94.81
57779;BME280;43608;49.486;9.640;2024-03-29T01:06:26;96974.56;;;1.90;95.24
57779;BME280;43608;49.486;9.640;2024-03-29T01:06:56;96976.34;;;1.94;95.03
57779;BME280;43608;49.486;9.640;2024-03-29T01:07:26;96977.19;;;1.96;95.32
57779;BME280;43608;49.486;9.640;2024-03-29T01:07:57;96964.97;;;1.87;95.24
57779;BME280;43608;49.486;9.640;2024-03-29T01:08:27;96985.94;;;1.96;94.91
57779;BME280;43608;49.486;9.640;2024-03-29T01:08:57;96987.66;;;1.96;94.86
57779;BME280;43608;49.486;9.640;2024-03-29T01:09:28;96921.38;;;1.57;95.12
57779;BME280;43608;49.486;9.640;2024-03-29T01:09:58;96960.63;;;1.80;95.24
57779;BME280;43608;49.486;9.640;2024-03-29T01:10:28;96974.59;;;1.94;94.90
57779;BME280;43608;49.486;9.640;2024-03-29T01:10:59;96984.16;;;1.97;94.96
57779;BME280;43608;49.486;9.640;2024-03-29T01:11:29;96971.94;;;1.88;94.96
57779;BME280;43608;49.486;9.640;2024-03-29T01:12:00;96970.25;;;1.96;95.12
57779;BME280;43608;49.486;9.640;2024-03-29T01:12:30;96960.63;;;1.88;95.00
57779;BME280;43608;49.486;9.640;2024-03-29T01:13:01;96976.34;;;1.95;95.18
57779;BME280;43608;49.486;9.640;2024-03-29T01:13:32;96978.06;;;1.95;94.96
57779;BME280;43608;49.486;9.640;2024-03-29T01:14:03;96978.94;;;1.95;95.31
57779;BME280;43608;49.486;9.640;2024-03-29T01:14:33;96976.34;;;1.94;95.68
57779;BME280;43608;49.486;9.640;2024-03-29T01:15:04;96976.34;;;1.94;95.07
57779;BME280;43608;49.486;9.640;2024-03-29T01:15:34;96967.59;;;1.93;95.37
57779;BME280;43608;49.486;9.640;2024-03-29T01:16:04;96962.38;;;1.93;95.55
57779;BME280;43608;49.486;9.640;2024-03-29T01:16:35;96965.84;;;1.89;95.17
57779;BME280;43608;49.486;9.640;2024-03-29T01:17:05;96966.75;;;1.93;95.57
57779;BME280;43608;49.486;9.640;2024-03-29T01:17:36;96964.13;;;1.94;95.50
57779;BME280;43608;49.486;9.640;2024-03-29T01:18:07;96957.16;;;1.93;95.62
57779;BME280;43608;49.486;9.640;2024-03-29T01:18:37;96958.03;;;1.92;95.28
57779;BME280;43608;49.486;9.640;2024-03-29T01:19:09;96965.88;;;1.94;95.35
57779;BME280;43608;49.486;9.640;2024-03-29T01:19:40;96941.50;;;1.89;95.65
57779;BME280;43608;49.486;9.640;2024-03-29T01:20:10;96950.22;;;1.95;95.84
57779;BME280;43608;49.486;9.640;2024-03-29T01:20:41;96951.94;;;1.95;95.49
57779;BME280;43608;49.486;9.640;2024-03-29T01:21:13;96951.06;;;1.97;95.34
57779;BME280;43608;49.486;9.640;2024-03-29T01:21:44;96871.75;;;1.47;95.56
57779;BME280;43608;49.486;9.640;2024-03-29T01:22:14;96960.66;;;1.97;95.97
57779;BME280;43608;49.486;9.640;2024-03-29T01:22:45;96914.47;;;1.77;95.57
57779;BME280;43608;49.486;9.640;2024-03-29T01:23:15;96953.72;;;1.99;95.68
57779;BME280;43608;49.486;9.640;2024-03-29T01:23:45;96943.22;;;1.97;96.17
57779;BME280;43608;49.486;9.640;2024-03-29T01:24:16;96907.50;;;1.75;95.79
57779;BME280;43608;49.486;9.640;2024-03-29T01:24:46;96949.34;;;2.01;96.11
57779;BME280;43608;49.486;9.640;2024-03-29T01:25:16;96951.94;;;2.01;95.94
57779;BME280;43608;49.486;9.640;2024-03-29T01:25:48;96945.84;;;2.02;95.81
57779;BME280;43608;49.486;9.640;2024-03-29T01:26:18;96923.19;;;1.90;96.19
57779;BME280;43608;49.486;9.640;2024-03-29T01:26:48;96938.03;;;2.01;95.80
57779;BME280;43608;49.486;9.640;2024-03-29T01:27:19;96949.34;;;2.03;96.21
57779;BME280;43608;49.486;9.640;2024-03-29T01:27:50;96945.00;;;2.02;95.95
57779;BME280;43608;49.486;9.640;2024-03-29T01:28:20;96946.72;;;2.03;96.14
57779;BME280;43608;49.486;9.640;2024-03-29T01:28:51;96945.84;;;2.02;96.04
57779;BME280;43608;49.486;9.640;2024-03-29T01:29:21;96943.25;;;2.02;96.32
57779;BME280;43608;49.486;9.640;2024-03-29T01:29:51;96941.50;;;2.03;96.00
57779;BME280;43608;49.486;9.640;2024-03-29T01:30:22;96943.25;;;2.01;96.14
57779;BME280;43608;49.486;9.640;2024-03-29T01:30:53;96907.50;;;1.84;96.03
57779;BME280;43608;49.486;9.640;2024-03-29T01:31:24;96948.47;;;2.04;96.18
57779;BME280;43608;49.486;9.640;2024-03-29T01:31:56;96957.19;;;2.06;96.29
57779;BME280;43608;49.486;9.640;2024-03-29T01:32:26;96945.84;;;2.05;96.53
57779;BME280;43608;49.486;9.640;2024-03-29T01:32:56;96945.84;;;2.07;96.16
57779;BME280;43608;49.486;9.640;2024-03-29T01:33:27;96947.59;;;2.08;96.57
57779;BME280;43608;49.486;9.640;2024-03-29T01:33:58;96945.88;;;2.08;96.47
57779;BME280;43608;49.486;9.640;2024-03-29T01:34:28;96950.22;;;2.09;96.44
57779;BME280;43608;49.486;9.640;2024-03-29T01:34:59;96949.34;;;2.10;96.46
57779;BME280;43608;49.486;9.640;2024-03-29T01:35:29;96951.94;;;2.12;96.70
57779;BME280;43608;49.486;9.640;2024-03-29T01:35:59;96958.06;;;2.14;96.35
57779;BME280;43608;49.486;9.640;2024-03-29T01:36:30;96954.59;;;2.15;96.35
57779;BME280;43608;49.486;9.640;2024-03-29T01:37:00;96922.34;;;2.01;96.34
57779;BME280;43608;49.486;9.640;2024-03-29T01:37:30;96941.50;;;2.18;96.42
57779;BME280;43608;49.486;9.640;2024-03-29T01:38:01;96945.00;;;2.17;96.28
57779;BME280;43608;49.486;9.640;2024-03-29T01:38:32;96924.97;;;2.08;96.37
57779;BME280;43608;49.486;9.640;2024-03-29T01:39:02;96917.13;;;2.10;96.48
57779;BME280;43608;49.486;9.640;2024-03-29T01:39:33;96934.56;;;2.20;96.21
57779;BME280;43608;49.486;9.640;2024-03-29T01:40:04;96934.56;;;2.20;96.21
57779;BME280;43608;49.486;9.640;2024-03-29T01:40:35;96934.53;;;2.23;96.04
57779;BME280;43608;49.486;9.640;2024-03-29T01:41:05;96889.22;;;2.03;96.14
57779;BME280;43608;49.486;9.640;2024-03-29T01:41:37;96904.06;;;2.11;96.44
57779;BME280;43608;49.486;9.640;2024-03-29T01:42:07;96924.97;;;2.24;96.21
57779;BME280;43608;49.486;9.640;2024-03-29T01:42:37;96918.00;;;2.26;96.12
57779;BME280;43608;49.486;9.640;2024-03-29T01:43:08;96910.13;;;2.20;96.22
57779;BME280;43608;49.486;9.640;2024-03-29T01:43:41;96914.50;;;2.22;96.05
57779;BME280;43608;49.486;9.640;2024-03-29T01:44:12;96907.53;;;2.27;96.35
57779;BME280;43608;49.486;9.640;2024-03-29T01:44:42;96913.66;;;2.28;95.90
57779;BME280;43608;49.486;9.640;2024-03-29T01:45:12;96920.63;;;2.29;95.83
57779;BME280;43608;49.486;9.640;2024-03-29T01:45:43;96913.66;;;2.29;95.91
57779;BME280;43608;49.486;9.640;2024-03-29T01:46:19;96891.88;;;2.21;96.27
57779;BME280;43608;49.486;9.640;2024-03-29T01:46:50;96832.63;;;1.91;96.37
57779;BME280;43608;49.486;9.640;2024-03-29T01:47:21;96893.63;;;2.31;96.39
57779;BME280;43608;49.486;9.640;2024-03-29T01:47:51;96891.84;;;2.32;96.20
57779;BME280;43608;49.486;9.640;2024-03-29T01:48:23;96892.72;;;2.31;96.39
57779;BME280;43608;49.486;9.640;2024-03-29T01:48:54;96897.97;;;2.36;96.51
57779;BME280;43608;49.486;9.640;2024-03-29T01:49:25;96898.81;;;2.36;96.13
57779;BME280;43608;49.486;9.640;2024-03-29T01:49:56;96896.19;;;2.38;96.12
57779;BME280;43608;49.486;9.640;2024-03-29T01:50:27;96902.31;;;2.38;96.06
57779;BME280;43608;49.486;9.640;2024-03-29T01:50:57;96894.44;;;2.37;96.31
57779;BME280;43608;49.486;9.640;2024-03-29T01:51:29;96884.88;;;2.33;96.25
57779;BME280;43608;49.486;9.640;2024-03-29T01:51:59;96898.84;;;2.41;95.95
57779;BME280;43608;49.486;9.640;2024-03-29T01:52:30;96894.47;;;2.40;96.41
57779;BME280;43608;49.486;9.640;2024-03-29T01:53:01;96899.69;;;2.41;96.18
57779;BME280;43608;49.486;9.640;2024-03-29T01:53:32;96885.75;;;2.35;96.42
57779;BME280;43608;49.486;9.640;2024-03-29T01:54:03;96882.25;;;2.31;96.39
57779;BME280;43608;49.486;9.640;2024-03-29T01:54:34;96897.94;;;2.39;96.34
57779;BME280;43608;49.486;9.640;2024-03-29T01:55:05;96904.91;;;2.44;96.44
57779;BME280;43608;49.486;9.640;2024-03-29T01:55:36;96901.44;;;2.44;96.35
57779;BME280;43608;49.486;9.640;2024-03-29T01:56:07;96897.94;;;2.45;96.54
57779;BME280;43608;49.486;9.640;2024-03-29T01:56:39;96895.34;;;2.43;96.27
57779;BME280;43608;49.486;9.640;2024-03-29T01:57:11;96904.03;;;2.45;96.51
57779;BME280;43608;49.486;9.640;2024-03-29T01:57:43;96897.06;;;2.44;96.12
57779;BME280;43608;49.486;9.640;2024-03-29T01:58:14;96907.53;;;2.46;96.39
57779;BME280;43608;49.486;9.640;2024-03-29T01:58:45;96906.66;;;2.47;96.06
57779;BME280;43608;49.486;9.640;2024-03-29T01:59:16;96908.41;;;2.48;96.23
57779;BME280;43608;49.486;9.640;2024-03-29T01:59:47;96909.28;;;2.48;96.42
57779;BME280;43608;49.486;9.640;2024-03-29T02:00:18;96908.41;;;2.48;96.01
57779;BME280;43608;49.486;9.640;2024-03-29T02:00:55;96905.78;;;2.48;96.15
57779;BME280;43608;49.486;9.640;2024-03-29T02:01:27;96905.78;;;2.46;95.98
57779;BME280;43608;49.486;9.640;2024-03-29T02:01:58;96877.06;;;2.26;96.13
57779;BME280;43608;49.486;9.640;2024-03-29T02:02:30;96911.00;;;2.50;96.51
57779;BME280;43608;49.486;9.640;2024-03-29T02:03:00;96907.53;;;2.51;95.99
57779;BME280;43608;49.486;9.640;2024-03-29T02:03:32;96906.66;;;2.52;96.10
57779;BME280;43608;49.486;9.640;2024-03-29T02:04:03;96905.78;;;2.48;96.36
57779;BME280;43608;49.486;9.640;2024-03-29T02:04:35;96907.53;;;2.51;95.85
57779;BME280;43608;49.486;9.640;2024-03-29T02:05:06;96914.50;;;2.53;96.19
57779;BME280;43608;49.486;9.640;2024-03-29T02:05:37;96917.09;;;2.55;96.50
57779;BME280;43608;49.486;9.640;2024-03-29T02:06:08;96881.38;;;2.35;96.22
57779;BME280;43608;49.486;9.640;2024-03-29T02:06:40;96903.16;;;2.50;96.06
57779;BME280;43608;49.486;9.640;2024-03-29T02:07:11;96924.09;;;2.56;96.36
57779;BME280;43608;49.486;9.640;2024-03-29T02:07:41;96920.63;;;2.54;96.13
57779;BME280;43608;49.486;9.640;2024-03-29T02:08:13;96920.59;;;2.57;96.07
57779;BME280;43608;49.486;9.640;2024-03-29T02:08:44;96934.53;;;2.57;96.34
57779;BME280;43608;49.486;9.640;2024-03-29T02:09:14;96931.91;;;2.57;96.34
57779;BME280;43608;49.486;9.640;2024-03-29T02:09:44;96928.44;;;2.57;96.49
57779;BME280;43608;49.486;9.640;2024-03-29T02:10:15;96927.56;;;2.58;96.43
57779;BME280;43608;49.486;9.640;2024-03-29T02:10:47;96924.06;;;2.57;96.28
57779;BME280;43608;49.486;9.640;2024-03-29T02:11:17;96891.84;;;2.40;96.36
57779;BME280;43608;49.486;9.640;2024-03-29T02:11:48;96926.72;;;2.59;96.42
57779;BME280;43608;49.486;9.640;2024-03-29T02:12:18;96908.38;;;2.56;96.42
57779;BME280;43608;49.486;9.640;2024-03-29T02:12:49;96920.59;;;2.60;96.56
57779;BME280;43608;49.486;9.640;2024-03-29T02:13:19;96897.91;;;2.57;96.30
57779;BME280;43608;49.486;9.640;2024-03-29T02:13:50;96900.56;;;2.60;96.39
57779;BME280;43608;49.486;9.640;2024-03-29T02:14:21;96889.19;;;2.60;96.60
57779;BME280;43608;49.486;9.640;2024-03-29T02:14:51;96885.72;;;2.61;96.25
57779;BME280;43608;49.486;9.640;2024-03-29T02:15:21;96884.88;;;2.59;96.32
57779;BME280;43608;49.486;9.640;2024-03-29T02:15:52;96886.59;;;2.61;96.25
57779;BME280;43608;49.486;9.640;2024-03-29T02:16:22;96870.91;;;2.55;96.68
57779;BME280;43608;49.486;9.640;2024-03-29T02:16:52;96880.47;;;2.62;96.67
57779;BME280;43608;49.486;9.640;2024-03-29T02:17:23;96884.00;;;2.61;96.59
57779;BME280;43608;49.486;9.640;2024-03-29T02:17:53;96890.06;;;2.62;96.35
57779;BME280;43608;49.486;9.640;2024-03-29T02:18:24;96884.84;;;2.62;96.34
57779;BME280;43608;49.486;9.640;2024-03-29T02:18:54;96892.69;;;2.63;96.43
57779;BME280;43608;49.486;9.640;2024-03-29T02:19:24;96891.81;;;2.63;96.66
57779;BME280;43608;49.486;9.640;2024-03-29T02:19:55;96885.72;;;2.61;96.79
57779;BME280;43608;49.486;9.640;2024-03-29T02:20:25;96891.81;;;2.64;96.86
57779;BME280;43608;49.486;9.640;2024-03-29T02:20:56;96890.94;;;2.66;96.82
57779;BME280;43608;49.486;9.640;2024-03-29T02:21:26;96891.81;;;2.66;96.95
57779;BME280;43608;49.486;9.640;2024-03-29T02:21:59;96869.16;;;2.54;96.97
57779;BME280;43608;49.486;9.640;2024-03-29T02:22:31;96897.91;;;2.68;96.58
57779;BME280;43608;49.486;9.640;2024-03-29T02:23:08;96890.06;;;2.70;96.90
57779;BME280;43608;49.486;9.640;2024-03-29T02:23:43;96902.28;;;2.71;96.87
57779;BME280;43608;49.486;9.640;2024-03-29T02:24:14;96881.34;;;2.66;97.05
57779;BME280;43608;49.486;9.640;2024-03-29T02:24:46;96891.81;;;2.72;97.11
57779;BME280;43608;49.486;9.640;2024-03-29T02:25:17;96890.94;;;2.75;96.82
57779;BME280;43608;49.486;9.640;2024-03-29T02:25:47;96843.91;;;2.50;97.14
57779;BME280;43608;49.486;9.640;2024-03-29T02:26:17;96883.06;;;2.76;96.82
57779;BME280;43608;49.486;9.640;2024-03-29T02:26:48;96885.69;;;2.78;96.58
57779;BME280;43608;49.486;9.640;2024-03-29T02:27:19;96875.22;;;2.75;96.81
57779;BME280;43608;49.486;9.640;2024-03-29T02:27:51;96877.81;;;2.78;96.61
57779;BME280;43608;49.486;9.640;2024-03-29T02:28:22;96854.34;;;2.66;96.57
57779;BME280;43608;49.486;9.640;2024-03-29T02:28:52;96861.28;;;2.70;96.73
57779;BME280;43608;49.486;9.640;2024-03-29T02:29:23;96876.06;;;2.83;96.43
57779;BME280;43608;49.486;9.640;2024-03-29T02:29:54;96874.31;;;2.87;96.69
57779;BME280;43608;49.486;9.640;2024-03-29T02:30:24;96876.94;;;2.88;96.45
57779;BME280;43608;49.486;9.640;2024-03-29T02:30:55;96817.72;;;2.66;96.19
57779;BME280;43608;49.486;9.640;2024-03-29T02:31:25;96859.50;;;2.90;96.33
57779;BME280;43608;49.486;9.640;2024-03-29T02:31:55;96864.72;;;2.92;96.23
57779;BME280;43608;49.486;9.640;2024-03-29T02:32:26;96866.47;;;2.93;96.46
57779;BME280;43608;49.486;9.640;2024-03-29T02:32:57;96862.94;;;2.94;96.14
57779;BME280;43608;49.486;9.640;2024-03-29T02:33:27;96861.22;;;2.94;96.51
57779;BME280;43608;49.486;9.640;2024-03-29T02:33:58;96862.94;;;2.94;96.51
57779;BME280;43608;49.486;9.640;2024-03-29T02:34:28;96869.03;;;2.97;96.26
57779;BME280;43608;49.486;9.640;2024-03-29T02:34:59;96864.69;;;2.98;96.14
57779;BME280;43608;49.486;9.640;2024-03-29T02:35:29;96836.81;;;2.83;95.96
57779;BME280;43608;49.486;9.640;2024-03-29T02:36:00;96871.66;;;3.01;96.19
57779;BME280;43608;49.486;9.640;2024-03-29T02:36:31;96876.00;;;3.02;96.53
57779;BME280;43608;49.486;9.640;2024-03-29T02:37:01;96877.75;;;3.04;96.20
57779;BME280;43608;49.486;9.640;2024-03-29T02:37:32;96869.91;;;3.03;96.13
57779;BME280;43608;49.486;9.640;2024-03-29T02:38:02;96874.25;;;3.07;96.34
57779;BME280;43608;49.486;9.640;2024-03-29T02:38:33;96871.63;;;3.07;95.86
57779;BME280;43608;49.486;9.640;2024-03-29T02:39:03;96875.09;;;3.12;95.91
57779;BME280;43608;49.486;9.640;2024-03-29T02:39:33;96881.22;;;3.14;95.75
57779;BME280;43608;49.486;9.640;2024-03-29T02:40:04;96862.91;;;3.06;95.61
57779;BME280;43608;49.486;9.640;2024-03-29T02:40:35;96880.31;;;3.18;95.34
57779;BME280;43608;49.486;9.640;2024-03-29T02:41:06;96856.78;;;3.12;95.00
57779;BME280;43608;49.486;9.640;2024-03-29T02:41:36;96872.47;;;3.23;95.27
57779;BME280;43608;49.486;9.640;2024-03-29T02:42:06;96870.69;;;3.25;95.07
57779;BME280;43608;49.486;9.640;2024-03-29T02:42:37;96868.94;;;3.27;95.11
57779;BME280;43608;49.486;9.640;2024-03-29T02:43:07;96865.44;;;3.28;94.89
57779;BME280;43608;49.486;9.640;2024-03-29T02:43:37;96867.16;;;3.29;94.73
57779;BME280;43608;49.486;9.640;2024-03-29T02:44:08;96873.28;;;3.31;94.84
57779;BME280;43608;49.486;9.640;2024-03-29T02:44:39;96868.06;;;3.29;95.01